sensor_id;sensor_type;location;lat;lon;timestamp;P1;durP1;ratioP1;P2;durP2;ratioP2
9140;SDS011;46330;50.822;7.126;2022-07-19T00:01:36;4.00;;;1.90;;
9140;SDS011;46330;50.822;7.126;2022-07-19T00:04:06;3.53;;;1.90;;
9140;SDS011;46330;50.822;7.126;2022-07-19T00:06:34;4.05;;;1.77;;
9140;SDS011;46330;50.822;7.126;2022-07-19T00:09:02;3.72;;;2.00;;
9140;SDS011;46330;50.822;7.126;2022-07-19T00:11:31;5.65;;;1.90;;
9140;SDS011;46330;50.822;7.126;2022-07-19T00:14:00;2.65;;;1.90;;
9140;SDS011;46330;50.822;7.126;2022-07-19T00:16:28;6.55;;;2.20;;
9140;SDS011;46330;50.822;7.126;2022-07-19T00:18:56;2.55;;;1.75;;
9140;SDS011;46330;50.822;7.126;2022-07-19T00:21:25;5.95;;;2.10;;
9140;SDS011;46330;50.822;7.126;2022-07-19T00:23:53;3.05;;;1.90;;
9140;SDS011;46330;50.822;7.126;2022-07-19T00:26:21;4.47;;;2.20;;
9140;SDS011;46330;50.822;7.126;2022-07-19T00:28:49;4.72;;;2.33;;
9140;SDS011;46330;50.822;7.126;2022-07-19T00:31:18;4.30;;;2.17;;
9140;SDS011;46330;50.822;7.126;2022-07-19T00:33:46;2.00;;;1.80;;
9140;SDS011;46330;50.822;7.126;2022-07-19T00:36:14;4.57;;;2.03;;
9140;SDS011;46330;50.822;7.126;2022-07-19T00:38:43;5.65;;;2.05;;
9140;SDS011;46330;50.822;7.126;2022-07-19T00:41:12;8.63;;;2.00;;
9140;SDS011;46330;50.822;7.126;2022-07-19T00:43:40;6.05;;;2.20;;
9140;SDS011;46330;50.822;7.126;2022-07-19T00:46:11;3.10;;;2.00;;
9140;SDS011;46330;50.822;7.126;2022-07-19T00:48:40;5.15;;;1.90;;
9140;SDS011;46330;50.822;7.126;2022-07-19T00:51:09;5.53;;;2.00;;
9140;SDS011;46330;50.822;7.126;2022-07-19T00:53:39;2.47;;;1.90;;
9140;SDS011;46330;50.822;7.126;2022-07-19T00:56:10;3.47;;;1.92;;
9140;SDS011;46330;50.822;7.126;2022-07-19T00:58:39;9.15;;;2.13;;
9140;SDS011;46330;50.822;7.126;2022-07-19T01:01:09;4.53;;;2.00;;
9140;SDS011;46330;50.822;7.126;2022-07-19T01:03:38;6.15;;;1.98;;
9140;SDS011;46330;50.822;7.126;2022-07-19T01:06:08;4.00;;;2.10;;
9140;SDS011;46330;50.822;7.126;2022-07-19T01:08:36;7.30;;;2.10;;
9140;SDS011;46330;50.822;7.126;2022-07-19T01:11:05;2.88;;;1.90;;
9140;SDS011;46330;50.822;7.126;2022-07-19T01:13:34;3.70;;;2.00;;
9140;SDS011;46330;50.822;7.126;2022-07-19T01:16:03;7.38;;;2.28;;
9140;SDS011;46330;50.822;7.126;2022-07-19T01:18:32;9.23;;;2.28;;
9140;SDS011;46330;50.822;7.126;2022-07-19T01:21:00;4.88;;;2.00;;
9140;SDS011;46330;50.822;7.126;2022-07-19T01:23:31;3.50;;;2.13;;
9140;SDS011;46330;50.822;7.126;2022-07-19T01:25:59;4.45;;;1.90;;
9140;SDS011;46330;50.822;7.126;2022-07-19T01:28:27;4.70;;;2.00;;
9140;SDS011;46330;50.822;7.126;2022-07-19T01:30:55;5.13;;;2.08;;
9140;SDS011;46330;50.822;7.126;2022-07-19T01:33:23;6.15;;;2.45;;
9140;SDS011;46330;50.822;7.126;2022-07-19T01:35:51;4.80;;;2.10;;
9140;SDS011;46330;50.822;7.126;2022-07-19T01:38:19;2.95;;;2.13;;
9140;SDS011;46330;50.822;7.126;2022-07-19T01:40:48;4.32;;;2.20;;
9140;SDS011;46330;50.822;7.126;2022-07-19T01:43:16;4.72;;;1.90;;
9140;SDS011;46330;50.822;7.126;2022-07-19T01:45:44;6.95;;;1.90;;
9140;SDS011;46330;50.822;7.126;2022-07-19T01:48:12;4.22;;;2.08;;
9140;SDS011;46330;50.822;7.126;2022-07-19T01:50:40;5.43;;;2.03;;
9140;SDS011;46330;50.822;7.126;2022-07-19T01:53:08;4.43;;;2.10;;
9140;SDS011;46330;50.822;7.126;2022-07-19T01:55:35;4.00;;;2.08;;
9140;SDS011;46330;50.822;7.126;2022-07-19T01:58:05;4.15;;;2.20;;
9140;SDS011;46330;50.822;7.126;2022-07-19T02:00:33;7.13;;;2.20;;
9140;SDS011;46330;50.822;7.126;2022-07-19T02:03:01;4.25;;;2.00;;
9140;SDS011;46330;50.822;7.126;2022-07-19T02:05:29;3.85;;;2.13;;
9140;SDS011;46330;50.822;7.126;2022-07-19T02:07:59;4.35;;;2.20;;
9140;SDS011;46330;50.822;7.126;2022-07-19T02:10:28;4.65;;;2.15;;
9140;SDS011;46330;50.822;7.126;2022-07-19T02:12:56;2.70;;;2.00;;
9140;SDS011;46330;50.822;7.126;2022-07-19T02:15:25;4.03;;;2.00;;
9140;SDS011;46330;50.822;7.126;2022-07-19T02:17:53;6.78;;;2.20;;
9140;SDS011;46330;50.822;7.126;2022-07-19T02:20:22;4.78;;;2.33;;
9140;SDS011;46330;50.822;7.126;2022-07-19T02:22:50;5.82;;;2.00;;
9140;SDS011;46330;50.822;7.126;2022-07-19T02:25:18;4.70;;;2.05;;
9140;SDS011;46330;50.822;7.126;2022-07-19T02:27:47;7.18;;;1.92;;
9140;SDS011;46330;50.822;7.126;2022-07-19T02:30:15;4.95;;;2.10;;
9140;SDS011;46330;50.822;7.126;2022-07-19T02:32:45;5.60;;;1.95;;
9140;SDS011;46330;50.822;7.126;2022-07-19T02:35:13;4.63;;;2.03;;
9140;SDS011;46330;50.822;7.126;2022-07-19T02:37:41;4.43;;;2.35;;
9140;SDS011;46330;50.822;7.126;2022-07-19T02:40:09;8.55;;;2.40;;
9140;SDS011;46330;50.822;7.126;2022-07-19T02:42:38;2.97;;;2.10;;
9140;SDS011;46330;50.822;7.126;2022-07-19T02:45:06;7.25;;;2.50;;
9140;SDS011;46330;50.822;7.126;2022-07-19T02:47:35;4.75;;;2.08;;
9140;SDS011;46330;50.822;7.126;2022-07-19T02:50:06;5.75;;;2.35;;
9140;SDS011;46330;50.822;7.126;2022-07-19T02:52:35;7.47;;;2.30;;
9140;SDS011;46330;50.822;7.126;2022-07-19T02:55:03;4.60;;;2.30;;
9140;SDS011;46330;50.822;7.126;2022-07-19T02:57:32;5.13;;;2.10;;
9140;SDS011;46330;50.822;7.126;2022-07-19T03:00:00;4.20;;;2.05;;
9140;SDS011;46330;50.822;7.126;2022-07-19T03:02:28;5.60;;;2.40;;
9140;SDS011;46330;50.822;7.126;2022-07-19T03:04:56;4.03;;;2.20;;
9140;SDS011;46330;50.822;7.126;2022-07-19T03:07:25;4.45;;;1.90;;
9140;SDS011;46330;50.822;7.126;2022-07-19T03:09:53;5.20;;;2.00;;
9140;SDS011;46330;50.822;7.126;2022-07-19T03:12:22;5.07;;;2.30;;
9140;SDS011;46330;50.822;7.126;2022-07-19T03:14:50;3.83;;;2.08;;
9140;SDS011;46330;50.822;7.126;2022-07-19T03:17:18;4.80;;;2.35;;
9140;SDS011;46330;50.822;7.126;2022-07-19T03:19:46;5.50;;;2.42;;
9140;SDS011;46330;50.822;7.126;2022-07-19T03:22:14;4.95;;;2.40;;
9140;SDS011;46330;50.822;7.126;2022-07-19T03:24:43;3.78;;;2.45;;
9140;SDS011;46330;50.822;7.126;2022-07-19T03:27:11;4.65;;;2.25;;
9140;SDS011;46330;50.822;7.126;2022-07-19T03:29:39;4.53;;;2.50;;
9140;SDS011;46330;50.822;7.126;2022-07-19T03:32:07;4.82;;;2.30;;
9140;SDS011;46330;50.822;7.126;2022-07-19T03:34:35;5.65;;;2.30;;
9140;SDS011;46330;50.822;7.126;2022-07-19T03:37:03;4.28;;;2.42;;
9140;SDS011;46330;50.822;7.126;2022-07-19T03:39:31;3.92;;;2.30;;
9140;SDS011;46330;50.822;7.126;2022-07-19T03:42:00;6.07;;;2.05;;
9140;SDS011;46330;50.822;7.126;2022-07-19T03:44:28;3.88;;;2.30;;
9140;SDS011;46330;50.822;7.126;2022-07-19T03:46:56;6.05;;;2.42;;
9140;SDS011;46330;50.822;7.126;2022-07-19T03:49:24;4.72;;;2.70;;
9140;SDS011;46330;50.822;7.126;2022-07-19T03:51:52;3.42;;;2.22;;
9140;SDS011;46330;50.822;7.126;2022-07-19T03:54:20;5.72;;;2.35;;
9140;SDS011;46330;50.822;7.126;2022-07-19T03:56:49;3.28;;;2.25;;
9140;SDS011;46330;50.822;7.126;2022-07-19T03:59:18;7.32;;;2.47;;
9140;SDS011;46330;50.822;7.126;2022-07-19T04:01:46;6.32;;;2.30;;
9140;SDS011;46330;50.822;7.126;2022-07-19T04:04:14;5.85;;;2.40;;
9140;SDS011;46330;50.822;7.126;2022-07-19T04:06:42;3.92;;;2.70;;
9140;SDS011;46330;50.822;7.126;2022-07-19T04:09:11;4.55;;;2.50;;
9140;SDS011;46330;50.822;7.126;2022-07-19T04:11:39;6.85;;;2.80;;
9140;SDS011;46330;50.822;7.126;2022-07-19T04:14:07;5.28;;;2.40;;
9140;SDS011;46330;50.822;7.126;2022-07-19T04:16:36;4.03;;;2.70;;
9140;SDS011;46330;50.822;7.126;2022-07-19T04:19:04;5.88;;;2.50;;
9140;SDS011;46330;50.822;7.126;2022-07-19T04:21:32;5.40;;;2.55;;
9140;SDS011;46330;50.822;7.126;2022-07-19T04:24:01;3.95;;;2.42;;
9140;SDS011;46330;50.822;7.126;2022-07-19T04:26:36;5.75;;;2.72;;
9140;SDS011;46330;50.822;7.126;2022-07-19T04:29:04;4.63;;;2.45;;
9140;SDS011;46330;50.822;7.126;2022-07-19T04:31:32;4.90;;;2.47;;
9140;SDS011;46330;50.822;7.126;2022-07-19T04:34:02;4.88;;;2.55;;
9140;SDS011;46330;50.822;7.126;2022-07-19T04:36:30;2.78;;;2.35;;
9140;SDS011;46330;50.822;7.126;2022-07-19T04:38:58;10.45;;;2.80;;
9140;SDS011;46330;50.822;7.126;2022-07-19T04:41:26;6.68;;;2.30;;
9140;SDS011;46330;50.822;7.126;2022-07-19T04:43:54;5.88;;;3.13;;
9140;SDS011;46330;50.822;7.126;2022-07-19T04:46:22;3.65;;;2.20;;
9140;SDS011;46330;50.822;7.126;2022-07-19T04:48:50;4.25;;;2.63;;
9140;SDS011;46330;50.822;7.126;2022-07-19T04:51:19;6.55;;;2.70;;
9140;SDS011;46330;50.822;7.126;2022-07-19T04:53:47;5.68;;;2.50;;
9140;SDS011;46330;50.822;7.126;2022-07-19T04:56:15;8.60;;;2.55;;
9140;SDS011;46330;50.822;7.126;2022-07-19T04:58:43;7.32;;;2.58;;
9140;SDS011;46330;50.822;7.126;2022-07-19T05:01:11;5.13;;;2.15;;
9140;SDS011;46330;50.822;7.126;2022-07-19T05:03:39;4.63;;;2.30;;
9140;SDS011;46330;50.822;7.126;2022-07-19T05:06:07;5.03;;;2.22;;
9140;SDS011;46330;50.822;7.126;2022-07-19T05:08:36;4.78;;;2.30;;
9140;SDS011;46330;50.822;7.126;2022-07-19T05:11:04;4.28;;;2.38;;
9140;SDS011;46330;50.822;7.126;2022-07-19T05:13:32;3.92;;;2.50;;
9140;SDS011;46330;50.822;7.126;2022-07-19T05:16:00;4.88;;;2.35;;
9140;SDS011;46330;50.822;7.126;2022-07-19T05:18:28;5.03;;;2.20;;
9140;SDS011;46330;50.822;7.126;2022-07-19T05:20:56;4.90;;;2.30;;
9140;SDS011;46330;50.822;7.126;2022-07-19T05:23:24;4.20;;;2.67;;
9140;SDS011;46330;50.822;7.126;2022-07-19T05:25:53;5.70;;;2.40;;
9140;SDS011;46330;50.822;7.126;2022-07-19T05:28:21;8.05;;;2.38;;
9140;SDS011;46330;50.822;7.126;2022-07-19T05:30:49;10.85;;;2.53;;
9140;SDS011;46330;50.822;7.126;2022-07-19T05:33:17;8.48;;;2.30;;
9140;SDS011;46330;50.822;7.126;2022-07-19T05:35:45;6.28;;;2.25;;
9140;SDS011;46330;50.822;7.126;2022-07-19T05:38:13;11.50;;;2.45;;
9140;SDS011;46330;50.822;7.126;2022-07-19T05:40:41;7.00;;;2.30;;
9140;SDS011;46330;50.822;7.126;2022-07-19T05:43:10;9.98;;;2.25;;
9140;SDS011;46330;50.822;7.126;2022-07-19T05:45:38;5.30;;;2.40;;
9140;SDS011;46330;50.822;7.126;2022-07-19T05:48:06;7.65;;;2.40;;
9140;SDS011;46330;50.822;7.126;2022-07-19T05:50:34;5.00;;;2.35;;
9140;SDS011;46330;50.822;7.126;2022-07-19T05:53:02;6.07;;;2.40;;
9140;SDS011;46330;50.822;7.126;2022-07-19T05:55:30;6.07;;;2.53;;
9140;SDS011;46330;50.822;7.126;2022-07-19T05:57:57;5.80;;;2.22;;
9140;SDS011;46330;50.822;7.126;2022-07-19T06:00:27;6.57;;;2.38;;
9140;SDS011;46330;50.822;7.126;2022-07-19T06:02:55;6.65;;;2.28;;
9140;SDS011;46330;50.822;7.126;2022-07-19T06:05:23;6.63;;;2.45;;
9140;SDS011;46330;50.822;7.126;2022-07-19T06:07:51;6.28;;;2.35;;
9140;SDS011;46330;50.822;7.126;2022-07-19T06:10:18;10.10;;;2.30;;
9140;SDS011;46330;50.822;7.126;2022-07-19T06:12:46;6.15;;;2.20;;
9140;SDS011;46330;50.822;7.126;2022-07-19T06:15:14;7.22;;;2.63;;
9140;SDS011;46330;50.822;7.126;2022-07-19T06:17:44;3.92;;;2.20;;
9140;SDS011;46330;50.822;7.126;2022-07-19T06:20:12;4.43;;;2.50;;
9140;SDS011;46330;50.822;7.126;2022-07-19T06:22:40;5.93;;;2.13;;
9140;SDS011;46330;50.822;7.126;2022-07-19T06:25:08;4.68;;;1.90;;
9140;SDS011;46330;50.822;7.126;2022-07-19T06:27:36;4.88;;;2.00;;
9140;SDS011;46330;50.822;7.126;2022-07-19T06:30:04;5.40;;;2.30;;
9140;SDS011;46330;50.822;7.126;2022-07-19T06:32:33;9.43;;;2.10;;
9140;SDS011;46330;50.822;7.126;2022-07-19T06:35:02;8.38;;;2.00;;
9140;SDS011;46330;50.822;7.126;2022-07-19T06:37:31;7.75;;;2.08;;
9140;SDS011;46330;50.822;7.126;2022-07-19T06:39:59;4.13;;;1.90;;
9140;SDS011;46330;50.822;7.126;2022-07-19T06:42:27;8.05;;;2.10;;
9140;SDS011;46330;50.822;7.126;2022-07-19T06:44:55;12.32;;;2.10;;
9140;SDS011;46330;50.822;7.126;2022-07-19T06:47:25;7.55;;;2.33;;
9140;SDS011;46330;50.822;7.126;2022-07-19T06:49:53;5.05;;;1.90;;
9140;SDS011;46330;50.822;7.126;2022-07-19T06:52:42;5.85;;;2.05;;
9140;SDS011;46330;50.822;7.126;2022-07-19T06:55:10;6.28;;;2.15;;
9140;SDS011;46330;50.822;7.126;2022-07-19T06:57:39;4.45;;;2.05;;
9140;SDS011;46330;50.822;7.126;2022-07-19T07:00:07;4.75;;;2.33;;
9140;SDS011;46330;50.822;7.126;2022-07-19T07:02:37;4.47;;;2.10;;
9140;SDS011;46330;50.822;7.126;2022-07-19T07:05:05;6.90;;;2.00;;
9140;SDS011;46330;50.822;7.126;2022-07-19T07:07:34;10.20;;;2.10;;
9140;SDS011;46330;50.822;7.126;2022-07-19T07:10:04;5.88;;;2.38;;
9140;SDS011;46330;50.822;7.126;2022-07-19T07:12:36;7.80;;;2.22;;
9140;SDS011;46330;50.822;7.126;2022-07-19T07:15:05;4.55;;;2.00;;
9140;SDS011;46330;50.822;7.126;2022-07-19T07:17:33;8.32;;;2.15;;
9140;SDS011;46330;50.822;7.126;2022-07-19T07:20:02;4.13;;;1.90;;
9140;SDS011;46330;50.822;7.126;2022-07-19T07:22:32;9.77;;;2.17;;
9140;SDS011;46330;50.822;7.126;2022-07-19T07:25:00;3.70;;;1.90;;
9140;SDS011;46330;50.822;7.126;2022-07-19T07:27:30;4.13;;;1.92;;
9140;SDS011;46330;50.822;7.126;2022-07-19T07:29:57;4.43;;;1.92;;
9140;SDS011;46330;50.822;7.126;2022-07-19T07:32:25;3.97;;;1.90;;
9140;SDS011;46330;50.822;7.126;2022-07-19T07:34:54;4.43;;;1.80;;
9140;SDS011;46330;50.822;7.126;2022-07-19T07:37:22;5.90;;;2.05;;
9140;SDS011;46330;50.822;7.126;2022-07-19T07:39:52;7.00;;;2.15;;
9140;SDS011;46330;50.822;7.126;2022-07-19T07:42:20;9.25;;;2.30;;
9140;SDS011;46330;50.822;7.126;2022-07-19T07:44:49;6.22;;;2.00;;
9140;SDS011;46330;50.822;7.126;2022-07-19T07:47:18;6.85;;;2.08;;
9140;SDS011;46330;50.822;7.126;2022-07-19T07:49:46;5.22;;;1.85;;
9140;SDS011;46330;50.822;7.126;2022-07-19T07:52:16;3.55;;;2.00;;
9140;SDS011;46330;50.822;7.126;2022-07-19T07:54:44;5.00;;;2.10;;
9140;SDS011;46330;50.822;7.126;2022-07-19T07:57:33;3.33;;;1.60;;
9140;SDS011;46330;50.822;7.126;2022-07-19T08:00:03;7.22;;;1.90;;
9140;SDS011;46330;50.822;7.126;2022-07-19T08:02:37;5.22;;;1.90;;
9140;SDS011;46330;50.822;7.126;2022-07-19T08:05:06;5.18;;;1.85;;
9140;SDS011;46330;50.822;7.126;2022-07-19T08:07:35;5.03;;;1.50;;
9140;SDS011;46330;50.822;7.126;2022-07-19T08:10:04;8.75;;;1.98;;
9140;SDS011;46330;50.822;7.126;2022-07-19T08:12:33;4.50;;;1.80;;
9140;SDS011;46330;50.822;7.126;2022-07-19T08:15:03;7.65;;;1.88;;
9140;SDS011;46330;50.822;7.126;2022-07-19T08:17:34;4.38;;;1.90;;
9140;SDS011;46330;50.822;7.126;2022-07-19T08:20:02;7.53;;;2.25;;
9140;SDS011;46330;50.822;7.126;2022-07-19T08:22:30;3.85;;;1.80;;
9140;SDS011;46330;50.822;7.126;2022-07-19T08:24:58;10.07;;;2.30;;
9140;SDS011;46330;50.822;7.126;2022-07-19T08:27:26;5.88;;;1.88;;
9140;SDS011;46330;50.822;7.126;2022-07-19T08:29:54;8.52;;;2.10;;
9140;SDS011;46330;50.822;7.126;2022-07-19T08:32:24;7.20;;;1.83;;
9140;SDS011;46330;50.822;7.126;2022-07-19T08:34:52;4.55;;;1.73;;
9140;SDS011;46330;50.822;7.126;2022-07-19T08:37:20;8.52;;;1.92;;
9140;SDS011;46330;50.822;7.126;2022-07-19T08:39:48;6.28;;;1.83;;
9140;SDS011;46330;50.822;7.126;2022-07-19T08:42:17;6.85;;;1.90;;
9140;SDS011;46330;50.822;7.126;2022-07-19T08:44:47;5.35;;;1.50;;
9140;SDS011;46330;50.822;7.126;2022-07-19T08:47:19;13.95;;;2.00;;
9140;SDS011;46330;50.822;7.126;2022-07-19T08:49:49;5.28;;;1.77;;
9140;SDS011;46330;50.822;7.126;2022-07-19T08:52:17;8.55;;;1.98;;
9140;SDS011;46330;50.822;7.126;2022-07-19T08:54:46;4.30;;;1.63;;
9140;SDS011;46330;50.822;7.126;2022-07-19T08:57:14;6.63;;;1.90;;
9140;SDS011;46330;50.822;7.126;2022-07-19T09:00:00;11.43;;;2.00;;
9140;SDS011;46330;50.822;7.126;2022-07-19T09:02:28;8.98;;;1.95;;
9140;SDS011;46330;50.822;7.126;2022-07-19T09:05:00;7.53;;;1.50;;
9140;SDS011;46330;50.822;7.126;2022-07-19T09:07:31;6.13;;;1.80;;
9140;SDS011;46330;50.822;7.126;2022-07-19T09:10:13;6.95;;;1.60;;
9140;SDS011;46330;50.822;7.126;2022-07-19T09:13:02;4.60;;;1.50;;
9140;SDS011;46330;50.822;7.126;2022-07-19T09:15:45;7.72;;;1.80;;
9140;SDS011;46330;50.822;7.126;2022-07-19T09:18:18;5.15;;;1.58;;
9140;SDS011;46330;50.822;7.126;2022-07-19T09:20:49;4.25;;;1.90;;
9140;SDS011;46330;50.822;7.126;2022-07-19T09:23:18;6.65;;;1.60;;
9140;SDS011;46330;50.822;7.126;2022-07-19T09:25:47;5.80;;;1.60;;
9140;SDS011;46330;50.822;7.126;2022-07-19T09:28:19;8.88;;;1.63;;
9140;SDS011;46330;50.822;7.126;2022-07-19T09:30:50;3.35;;;1.50;;
9140;SDS011;46330;50.822;7.126;2022-07-19T09:33:19;5.07;;;1.50;;
9140;SDS011;46330;50.822;7.126;2022-07-19T09:35:50;25.40;;;3.47;;
9140;SDS011;46330;50.822;7.126;2022-07-19T09:38:20;64.22;;;5.85;;
9140;SDS011;46330;50.822;7.126;2022-07-19T09:40:50;5.80;;;1.75;;
9140;SDS011;46330;50.822;7.126;2022-07-19T09:43:21;6.10;;;1.88;;
9140;SDS011;46330;50.822;7.126;2022-07-19T09:46:26;5.25;;;1.50;;
9140;SDS011;46330;50.822;7.126;2022-07-19T09:49:01;5.00;;;1.70;;
9140;SDS011;46330;50.822;7.126;2022-07-19T09:51:33;7.25;;;1.52;;
9140;SDS011;46330;50.822;7.126;2022-07-19T09:54:03;6.75;;;1.77;;
9140;SDS011;46330;50.822;7.126;2022-07-19T09:56:32;4.13;;;1.70;;
9140;SDS011;46330;50.822;7.126;2022-07-19T09:59:00;5.13;;;1.50;;
9140;SDS011;46330;50.822;7.126;2022-07-19T10:01:29;4.38;;;1.48;;
9140;SDS011;46330;50.822;7.126;2022-07-19T10:04:01;5.72;;;1.55;;
9140;SDS011;46330;50.822;7.126;2022-07-19T10:06:33;5.82;;;1.40;;
9140;SDS011;46330;50.822;7.126;2022-07-19T10:09:02;7.00;;;1.60;;
9140;SDS011;46330;50.822;7.126;2022-07-19T10:11:31;3.85;;;1.42;;
9140;SDS011;46330;50.822;7.126;2022-07-19T10:13:59;3.50;;;1.30;;
9140;SDS011;46330;50.822;7.126;2022-07-19T10:16:34;6.38;;;1.63;;
9140;SDS011;46330;50.822;7.126;2022-07-19T10:24:12;4.28;;;1.60;;
9140;SDS011;46330;50.822;7.126;2022-07-19T10:26:41;3.58;;;1.45;;
9140;SDS011;46330;50.822;7.126;2022-07-19T10:29:11;3.28;;;1.48;;
9140;SDS011;46330;50.822;7.126;2022-07-19T10:31:43;4.60;;;1.60;;
9140;SDS011;46330;50.822;7.126;2022-07-19T10:34:29;3.50;;;1.58;;
9140;SDS011;46330;50.822;7.126;2022-07-19T10:36:59;5.43;;;1.20;;
9140;SDS011;46330;50.822;7.126;2022-07-19T10:39:28;5.70;;;1.65;;
9140;SDS011;46330;50.822;7.126;2022-07-19T10:42:08;5.53;;;1.50;;
9140;SDS011;46330;50.822;7.126;2022-07-19T10:50:41;8.00;;;1.55;;
9140;SDS011;46330;50.822;7.126;2022-07-19T10:56:25;6.32;;;1.50;;
9140;SDS011;46330;50.822;7.126;2022-07-19T10:58:56;3.38;;;1.30;;
9140;SDS011;46330;50.822;7.126;2022-07-19T11:01:25;2.88;;;1.40;;
9140;SDS011;46330;50.822;7.126;2022-07-19T11:04:21;2.83;;;1.20;;
9140;SDS011;46330;50.822;7.126;2022-07-19T11:06:49;8.15;;;1.50;;
9140;SDS011;46330;50.822;7.126;2022-07-19T11:09:17;2.63;;;1.40;;
9140;SDS011;46330;50.822;7.126;2022-07-19T11:11:52;2.88;;;1.40;;
9140;SDS011;46330;50.822;7.126;2022-07-19T11:14:20;3.40;;;1.40;;
9140;SDS011;46330;50.822;7.126;2022-07-19T11:16:48;2.97;;;1.30;;
9140;SDS011;46330;50.822;7.126;2022-07-19T11:19:27;6.30;;;1.60;;
9140;SDS011;46330;50.822;7.126;2022-07-19T11:21:55;4.60;;;1.58;;
9140;SDS011;46330;50.822;7.126;2022-07-19T11:24:28;3.05;;;1.50;;
9140;SDS011;46330;50.822;7.126;2022-07-19T11:26:57;4.15;;;1.45;;
9140;SDS011;46330;50.822;7.126;2022-07-19T11:34:53;6.07;;;1.55;;
9140;SDS011;46330;50.822;7.126;2022-07-19T11:37:22;3.45;;;1.42;;
9140;SDS011;46330;50.822;7.126;2022-07-19T11:39:52;5.88;;;1.40;;
9140;SDS011;46330;50.822;7.126;2022-07-19T11:42:28;3.83;;;1.38;;
9140;SDS011;46330;50.822;7.126;2022-07-19T11:45:17;4.47;;;1.40;;
9140;SDS011;46330;50.822;7.126;2022-07-19T11:47:47;2.85;;;1.40;;
9140;SDS011;46330;50.822;7.126;2022-07-19T11:50:17;4.93;;;1.40;;
9140;SDS011;46330;50.822;7.126;2022-07-19T11:52:49;7.63;;;1.60;;
9140;SDS011;46330;50.822;7.126;2022-07-19T11:55:19;4.45;;;1.58;;
9140;SDS011;46330;50.822;7.126;2022-07-19T11:57:50;7.15;;;1.60;;
9140;SDS011;46330;50.822;7.126;2022-07-19T12:00:20;4.88;;;1.50;;
9140;SDS011;46330;50.822;7.126;2022-07-19T12:02:51;3.45;;;1.50;;
9140;SDS011;46330;50.822;7.126;2022-07-19T12:05:21;7.55;;;1.60;;
9140;SDS011;46330;50.822;7.126;2022-07-19T12:07:50;4.53;;;1.60;;
9140;SDS011;46330;50.822;7.126;2022-07-19T12:10:32;3.78;;;1.50;;
9140;SDS011;46330;50.822;7.126;2022-07-19T12:13:02;5.22;;;1.60;;
9140;SDS011;46330;50.822;7.126;2022-07-19T12:15:44;4.55;;;1.40;;
9140;SDS011;46330;50.822;7.126;2022-07-19T12:18:14;8.95;;;1.52;;
9140;SDS011;46330;50.822;7.126;2022-07-19T12:20:43;5.45;;;1.42;;
9140;SDS011;46330;50.822;7.126;2022-07-19T12:23:16;2.17;;;1.20;;
9140;SDS011;46330;50.822;7.126;2022-07-19T12:25:45;4.30;;;1.60;;
9140;SDS011;46330;50.822;7.126;2022-07-19T12:28:15;3.65;;;1.38;;
9140;SDS011;46330;50.822;7.126;2022-07-19T12:30:43;7.43;;;1.48;;
9140;SDS011;46330;50.822;7.126;2022-07-19T12:33:11;3.75;;;1.65;;
9140;SDS011;46330;50.822;7.126;2022-07-19T12:35:41;4.47;;;1.50;;
9140;SDS011;46330;50.822;7.126;2022-07-19T12:38:10;7.18;;;1.58;;
9140;SDS011;46330;50.822;7.126;2022-07-19T12:40:39;4.05;;;1.40;;
9140;SDS011;46330;50.822;7.126;2022-07-19T12:43:09;8.38;;;1.55;;
9140;SDS011;46330;50.822;7.126;2022-07-19T12:45:41;3.03;;;1.40;;
9140;SDS011;46330;50.822;7.126;2022-07-19T12:48:13;5.85;;;1.48;;
9140;SDS011;46330;50.822;7.126;2022-07-19T12:50:43;4.05;;;1.60;;
9140;SDS011;46330;50.822;7.126;2022-07-19T12:53:14;2.58;;;1.40;;
9140;SDS011;46330;50.822;7.126;2022-07-19T12:55:44;7.22;;;1.60;;
9140;SDS011;46330;50.822;7.126;2022-07-19T12:58:13;3.58;;;1.60;;
9140;SDS011;46330;50.822;7.126;2022-07-19T13:01:03;3.00;;;1.48;;
9140;SDS011;46330;50.822;7.126;2022-07-19T13:03:32;6.30;;;1.55;;
9140;SDS011;46330;50.822;7.126;2022-07-19T13:06:00;5.85;;;1.70;;
9140;SDS011;46330;50.822;7.126;2022-07-19T13:08:29;4.93;;;1.90;;
9140;SDS011;46330;50.822;7.126;2022-07-19T13:10:56;3.58;;;1.50;;
9140;SDS011;46330;50.822;7.126;2022-07-19T13:13:25;5.28;;;1.55;;
9140;SDS011;46330;50.822;7.126;2022-07-19T13:15:53;6.35;;;1.65;;
9140;SDS011;46330;50.822;7.126;2022-07-19T13:18:22;5.32;;;1.75;;
9140;SDS011;46330;50.822;7.126;2022-07-19T13:20:50;4.55;;;1.63;;
9140;SDS011;46330;50.822;7.126;2022-07-19T13:23:18;7.97;;;1.90;;
9140;SDS011;46330;50.822;7.126;2022-07-19T13:25:46;5.00;;;1.80;;
9140;SDS011;46330;50.822;7.126;2022-07-19T13:28:14;6.43;;;1.60;;
9140;SDS011;46330;50.822;7.126;2022-07-19T13:30:42;3.70;;;1.55;;
9140;SDS011;46330;50.822;7.126;2022-07-19T13:33:10;4.55;;;1.67;;
9140;SDS011;46330;50.822;7.126;2022-07-19T13:35:39;4.03;;;1.50;;
9140;SDS011;46330;50.822;7.126;2022-07-19T13:38:07;5.28;;;1.80;;
9140;SDS011;46330;50.822;7.126;2022-07-19T13:40:35;3.63;;;1.70;;
9140;SDS011;46330;50.822;7.126;2022-07-19T13:43:03;3.28;;;1.60;;
9140;SDS011;46330;50.822;7.126;2022-07-19T13:45:31;4.25;;;1.60;;
9140;SDS011;46330;50.822;7.126;2022-07-19T13:47:59;5.47;;;1.70;;
9140;SDS011;46330;50.822;7.126;2022-07-19T13:50:27;8.32;;;1.70;;
9140;SDS011;46330;50.822;7.126;2022-07-19T13:52:58;6.60;;;1.90;;
9140;SDS011;46330;50.822;7.126;2022-07-19T13:55:27;5.53;;;1.75;;
9140;SDS011;46330;50.822;7.126;2022-07-19T13:57:55;4.93;;;1.70;;
9140;SDS011;46330;50.822;7.126;2022-07-19T14:00:23;5.20;;;1.70;;
9140;SDS011;46330;50.822;7.126;2022-07-19T14:02:52;4.45;;;1.55;;
9140;SDS011;46330;50.822;7.126;2022-07-19T14:05:20;4.40;;;1.63;;
9140;SDS011;46330;50.822;7.126;2022-07-19T14:07:48;9.20;;;1.70;;
9140;SDS011;46330;50.822;7.126;2022-07-19T14:10:17;7.05;;;1.90;;
9140;SDS011;46330;50.822;7.126;2022-07-19T14:12:45;8.75;;;1.98;;
9140;SDS011;46330;50.822;7.126;2022-07-19T14:15:34;9.55;;;1.67;;
9140;SDS011;46330;50.822;7.126;2022-07-19T14:18:02;7.25;;;1.73;;
9140;SDS011;46330;50.822;7.126;2022-07-19T14:20:30;6.22;;;1.77;;
9140;SDS011;46330;50.822;7.126;2022-07-19T14:22:58;5.85;;;1.75;;
9140;SDS011;46330;50.822;7.126;2022-07-19T14:25:27;4.20;;;1.80;;
9140;SDS011;46330;50.822;7.126;2022-07-19T14:27:55;5.47;;;1.77;;
9140;SDS011;46330;50.822;7.126;2022-07-19T14:30:24;4.90;;;1.90;;
9140;SDS011;46330;50.822;7.126;2022-07-19T14:32:51;3.88;;;1.73;;
9140;SDS011;46330;50.822;7.126;2022-07-19T14:35:19;6.65;;;1.90;;
9140;SDS011;46330;50.822;7.126;2022-07-19T14:37:47;4.05;;;2.10;;
9140;SDS011;46330;50.822;7.126;2022-07-19T14:40:16;5.22;;;1.90;;
9140;SDS011;46330;50.822;7.126;2022-07-19T14:42:45;3.85;;;1.63;;
9140;SDS011;46330;50.822;7.126;2022-07-19T14:45:13;3.42;;;1.90;;
9140;SDS011;46330;50.822;7.126;2022-07-19T14:47:41;4.30;;;1.88;;
9140;SDS011;46330;50.822;7.126;2022-07-19T14:50:10;7.00;;;1.90;;
9140;SDS011;46330;50.822;7.126;2022-07-19T14:52:38;8.35;;;2.08;;
9140;SDS011;46330;50.822;7.126;2022-07-19T14:55:07;4.05;;;1.98;;
9140;SDS011;46330;50.822;7.126;2022-07-19T14:57:36;4.10;;;1.90;;
9140;SDS011;46330;50.822;7.126;2022-07-19T15:00:09;4.85;;;1.83;;
9140;SDS011;46330;50.822;7.126;2022-07-19T15:02:38;3.03;;;1.90;;
9140;SDS011;46330;50.822;7.126;2022-07-19T15:05:07;7.55;;;2.00;;
9140;SDS011;46330;50.822;7.126;2022-07-19T15:07:36;6.95;;;2.20;;
9140;SDS011;46330;50.822;7.126;2022-07-19T15:10:04;3.92;;;2.00;;
9140;SDS011;46330;50.822;7.126;2022-07-19T15:12:33;6.03;;;2.10;;
9140;SDS011;46330;50.822;7.126;2022-07-19T15:15:04;5.03;;;2.05;;
9140;SDS011;46330;50.822;7.126;2022-07-19T15:17:33;5.60;;;2.15;;
9140;SDS011;46330;50.822;7.126;2022-07-19T15:20:01;4.32;;;2.30;;
9140;SDS011;46330;50.822;7.126;2022-07-19T15:22:30;3.88;;;2.10;;
9140;SDS011;46330;50.822;7.126;2022-07-19T15:24:58;5.53;;;2.20;;
9140;SDS011;46330;50.822;7.126;2022-07-19T15:27:25;3.88;;;2.00;;
9140;SDS011;46330;50.822;7.126;2022-07-19T15:29:53;5.82;;;2.20;;
9140;SDS011;46330;50.822;7.126;2022-07-19T15:32:28;5.22;;;2.20;;
9140;SDS011;46330;50.822;7.126;2022-07-19T15:34:57;4.93;;;1.85;;